Time;durP1;ratioP1;P1;durP2;ratioP2;P2;SDS_P1;SDS_P2;PMS_P1;PMS_P2;Temp;Humidity;BMP_temperature;BMP_pressure;BME280_temperature;BME280_humidity;BME280_pressure;Samples;Min_cycle;Max_cycle;Signal;HPM_P1;HPM_P2
2024/04/20 00:02:20;;;;;;;6.05;3.20;;;4.40;99.90;;;;;;5449104;26;20259;-72
2024/04/20 00:04:50;;;;;;;11.90;3.85;;;4.40;99.90;;;;;;5448555;26;20246;-73
2024/04/20 00:07:20;;;;;;;7.57;2.70;;;4.40;99.90;;;;;;5445776;26;20245;-73
2024/04/20 00:09:49;;;;;;;5.97;3.53;;;4.40;99.90;;;;;;5448261;26;20338;-73
2024/04/20 00:12:20;;;;;;;4.70;3.53;;;4.40;99.90;;;;;;5448452;26;20601;-73
2024/04/20 00:14:50;;;;;;;2.78;2.47;;;4.40;99.90;;;;;;5449501;26;20274;-72
2024/04/20 00:17:18;;;;;;;4.57;3.38;;;4.40;99.90;;;;;;5479202;26;20248;-73
2024/04/20 00:19:48;;;;;;;3.95;2.40;;;4.50;99.90;;;;;;5471528;26;20355;-73
2024/04/20 00:22:16;;;;;;;6.40;2.47;;;4.40;99.90;;;;;;5470378;26;20626;-73
2024/04/20 00:24:51;;;;;;;3.25;2.95;;;4.40;99.90;;;;;;5470685;26;20757;-73
2024/04/20 00:27:22;;;;;;;10.05;2.63;;;4.40;99.90;;;;;;5471497;26;20271;-73
2024/04/20 00:29:51;;;;;;;3.97;2.60;;;4.40;99.90;;;;;;5476395;26;20267;-73
2024/04/20 00:32:20;;;;;;;4.80;3.95;;;4.40;99.90;;;;;;5479391;26;20286;-74
2024/04/20 00:34:49;;;;;;;3.05;2.25;;;4.40;99.90;;;;;;5462648;26;20344;-72
2024/04/20 00:37:18;;;;;;;6.60;2.95;;;4.30;99.90;;;;;;5467987;26;20244;-73
2024/04/20 00:39:46;;;;;;;6.30;3.05;;;4.30;99.90;;;;;;5472419;26;20244;-73
2024/04/20 00:42:16;;;;;;;2.50;2.00;;;4.20;99.90;;;;;;5453293;26;20245;-73
2024/04/20 00:44:47;;;;;;;6.28;3.05;;;4.20;99.90;;;;;;5447418;26;20572;-73
2024/04/20 00:47:16;;;;;;;2.85;2.55;;;4.30;99.90;;;;;;5447638;26;20706;-72
2024/04/20 00:49:45;;;;;;;3.35;2.08;;;4.20;99.90;;;;;;5448278;26;20268;-73
2024/04/20 00:52:14;;;;;;;3.20;1.83;;;4.20;99.90;;;;;;5448062;26;20272;-73
2024/04/20 00:54:44;;;;;;;4.07;1.88;;;4.20;99.90;;;;;;5447892;26;20638;-73
2024/04/20 00:57:13;;;;;;;4.97;2.85;;;4.20;99.90;;;;;;5461241;26;20760;-73
2024/04/20 00:59:42;;;;;;;3.63;2.60;;;4.20;99.90;;;;;;5447609;26;20236;-73
2024/04/20 01:02:15;;;;;;;6.13;3.53;;;4.20;99.90;;;;;;5447472;26;20268;-73
2024/04/20 01:04:45;;;;;;;5.07;4.00;;;4.20;99.90;;;;;;5473795;26;20275;-74
2024/04/20 01:07:14;;;;;;;4.05;3.03;;;4.20;99.90;;;;;;5473317;26;20275;-73
2024/04/20 01:09:44;;;;;;;6.22;2.80;;;4.10;99.90;;;;;;5473158;26;20271;-73
2024/04/20 01:12:13;;;;;;;3.60;3.05;;;4.20;99.90;;;;;;5468317;26;20268;-73
2024/04/20 01:14:42;;;;;;;2.22;2.00;;;4.20;99.90;;;;;;5454534;26;20240;-73
2024/04/20 01:17:14;;;;;;;5.68;2.33;;;4.20;99.90;;;;;;5477255;26;20249;-73
2024/04/20 01:19:43;;;;;;;5.10;2.50;;;4.20;99.90;;;;;;5474543;26;20344;-73
2024/04/20 01:22:12;;;;;;;4.35;2.95;;;4.20;99.90;;;;;;5458597;26;20288;-73
2024/04/20 01:24:42;;;;;;;6.03;2.80;;;4.20;99.90;;;;;;5447416;26;20249;-73
2024/04/20 01:27:13;;;;;;;2.78;2.25;;;4.20;99.90;;;;;;5446962;26;20276;-73
2024/04/20 01:29:42;;;;;;;3.70;2.55;;;4.20;99.90;;;;;;5434435;26;20823;-73
2024/04/20 01:32:11;;;;;;;2.50;2.28;;;4.20;99.90;;;;;;5447208;26;20275;-73
2024/04/20 01:34:39;;;;;;;3.40;2.05;;;4.20;99.90;;;;;;5446336;26;20270;-72
2024/04/20 01:37:08;;;;;;;3.55;2.45;;;4.20;99.90;;;;;;5446397;26;20233;-73
2024/04/20 01:39:37;;;;;;;2.67;2.47;;;4.20;99.90;;;;;;5452704;26;20251;-72
2024/04/20 01:42:06;;;;;;;7.95;3.15;;;4.10;99.90;;;;;;5454417;26;20713;-73
2024/04/20 01:44:37;;;;;;;4.75;2.65;;;4.10;99.90;;;;;;5447116;26;20280;-73
2024/04/20 01:47:07;;;;;;;3.60;2.38;;;4.00;99.90;;;;;;5445926;26;20285;-73
2024/04/20 01:49:35;;;;;;;2.25;1.80;;;4.10;99.90;;;;;;5470391;26;20245;-73
2024/04/20 01:52:04;;;;;;;5.25;2.65;;;4.10;99.90;;;;;;5455834;26;20243;-73
2024/04/20 01:54:33;;;;;;;7.53;2.83;;;4.10;99.90;;;;;;5447145;26;20667;-73
2024/04/20 01:57:02;;;;;;;3.25;1.85;;;4.10;99.90;;;;;;5459236;26;20273;-73
2024/04/20 01:59:31;;;;;;;4.30;2.35;;;4.00;99.90;;;;;;5482005;26;20239;-73
2024/04/20 02:02:02;;;;;;;3.83;2.17;;;4.00;99.90;;;;;;5476996;26;20248;-73
2024/04/20 02:04:31;;;;;;;6.82;2.72;;;4.00;99.90;;;;;;5448331;26;20256;-73
2024/04/20 02:07:00;;;;;;;6.00;3.47;;;4.00;99.90;;;;;;5446676;26;20283;-74
2024/04/20 02:09:29;;;;;;;4.47;3.25;;;3.90;99.90;;;;;;5476149;26;20268;-73
2024/04/20 02:11:57;;;;;;;4.40;2.40;;;3.90;99.90;;;;;;5481407;26;20251;-73
2024/04/20 02:14:26;;;;;;;3.40;3.00;;;3.90;99.90;;;;;;5469534;26;20679;-74
2024/04/20 02:16:55;;;;;;;4.70;4.07;;;3.90;99.90;;;;;;5446164;26;20324;-73
2024/04/20 02:19:27;;;;;;;4.80;3.10;;;3.90;99.90;;;;;;5446394;26;20244;-73
2024/04/20 02:21:56;;;;;;;3.75;3.00;;;3.90;99.90;;;;;;5457700;26;20239;-73
2024/04/20 02:24:26;;;;;;;11.35;4.45;;;3.90;99.90;;;;;;5478794;26;20241;-73
2024/04/20 02:26:55;;;;;;;4.75;2.20;;;3.90;99.90;;;;;;5481636;26;20244;-73
2024/04/20 02:29:25;;;;;;;7.03;2.22;;;3.90;99.90;;;;;;5443789;26;20410;-73
2024/04/20 02:31:55;;;;;;;6.97;2.58;;;3.90;99.90;;;;;;5446506;26;20270;-74
2024/04/20 02:34:27;;;;;;;6.60;2.25;;;3.90;99.90;;;;;;5446321;26;20296;-73
2024/04/20 02:37:09;;;;;;;5.00;2.58;;;3.80;99.90;;;;;;5445097;26;20253;-73
2024/04/20 02:39:38;;;;;;;2.65;2.42;;;3.80;99.90;;;;;;5451819;26;20276;-73
2024/04/20 02:42:08;;;;;;;5.22;2.30;;;3.80;99.90;;;;;;5453671;26;20288;-74
2024/04/20 02:44:38;;;;;;;2.92;2.60;;;3.80;99.90;;;;;;5481928;26;20231;-74
2024/04/20 02:47:08;;;;;;;3.78;2.55;;;3.80;99.90;;;;;;5465455;26;20251;-73
2024/04/20 02:49:40;;;;;;;1.75;1.65;;;3.80;99.90;;;;;;5445473;26;20291;-73
2024/04/20 02:52:09;;;;;;;3.80;2.70;;;3.80;99.90;;;;;;5446422;26;20244;-73
2024/04/20 02:54:35;;;;;;;2.55;1.70;;;3.80;99.90;;;;;;5432931;26;20627;-73
2024/04/20 02:57:06;;;;;;;7.18;2.90;;;3.80;99.90;;;;;;5451443;26;20328;-74
2024/04/20 02:59:36;;;;;;;3.95;2.72;;;3.80;99.90;;;;;;5448614;26;20256;-73
2024/04/20 03:02:06;;;;;;;2.75;2.40;;;3.80;99.90;;;;;;5449427;26;20244;-73
2024/04/20 03:04:35;;;;;;;2.60;2.28;;;3.70;99.90;;;;;;5448920;26;20240;-74
2024/04/20 03:07:07;;;;;;;7.47;3.22;;;3.80;99.90;;;;;;5449006;26;20359;-74
2024/04/20 03:09:37;;;;;;;4.45;2.60;;;3.70;99.90;;;;;;5485281;26;20662;-73
2024/04/20 03:12:07;;;;;;;4.60;2.70;;;3.80;99.90;;;;;;5485647;26;20244;-73
2024/04/20 03:14:36;;;;;;;2.83;2.40;;;3.70;99.90;;;;;;5457514;26;20245;-73
2024/04/20 03:17:05;;;;;;;2.50;1.75;;;3.70;99.90;;;;;;5449004;26;20572;-73
2024/04/20 03:19:34;;;;;;;8.00;2.60;;;3.70;99.90;;;;;;5449274;26;20285;-73
2024/04/20 03:22:03;;;;;;;2.40;1.73;;;3.70;99.90;;;;;;5449028;26;20270;-74
2024/04/20 03:24:35;;;;;;;3.20;2.58;;;3.70;99.90;;;;;;5449088;26;20269;-75
2024/04/20 03:27:01;;;;;;;6.18;3.50;;;3.70;99.90;;;;;;5449322;26;20250;-73
2024/04/20 03:29:30;;;;;;;3.53;2.45;;;3.70;99.90;;;;;;5448364;26;20266;-73
2024/04/20 03:31:59;;;;;;;7.68;2.65;;;3.60;99.90;;;;;;5436052;26;20294;-74
2024/04/20 03:34:27;;;;;;;3.78;2.25;;;3.60;99.90;;;;;;5439754;26;20277;-73
2024/04/20 03:36:56;;;;;;;7.38;3.28;;;3.60;99.90;;;;;;5475400;26;20268;-74
2024/04/20 03:39:25;;;;;;;6.25;3.45;;;3.60;99.90;;;;;;5481260;26;20243;-73
2024/04/20 03:41:57;;;;;;;3.95;3.33;;;3.60;99.90;;;;;;5449212;26;20256;-74
2024/04/20 03:44:25;;;;;;;8.65;3.30;;;3.60;99.90;;;;;;5436555;26;20261;-73
2024/04/20 03:46:54;;;;;;;3.05;2.67;;;3.60;99.90;;;;;;5436040;26;20785;-73
2024/04/20 03:49:23;;;;;;;5.50;2.35;;;3.60;99.90;;;;;;5430870;26;20660;-74
2024/04/20 03:51:52;;;;;;;3.85;2.47;;;3.50;99.90;;;;;;5437936;26;20600;-73
2024/04/20 03:54:21;;;;;;;6.70;4.63;;;3.60;99.90;;;;;;5465603;26;20850;-73
2024/04/20 03:56:50;;;;;;;3.90;2.60;;;3.60;99.90;;;;;;5432893;26;20238;-73
2024/04/20 03:59:21;;;;;;;3.53;2.47;;;3.60;99.90;;;;;;5454064;26;20240;-73
2024/04/20 04:01:50;;;;;;;3.30;2.67;;;3.60;99.90;;;;;;5474380;26;20282;-73
2024/04/20 04:04:19;;;;;;;4.20;2.50;;;3.60;99.90;;;;;;5473757;26;20245;-73
2024/04/20 04:06:48;;;;;;;4.20;2.78;;;3.70;99.90;;;;;;5478871;26;20252;-73
2024/04/20 04:09:17;;;;;;;3.83;2.20;;;3.70;99.90;;;;;;5479794;26;20241;-74
2024/04/20 04:11:46;;;;;;;3.03;2.65;;;3.70;99.90;;;;;;5473844;26;20285;-73
2024/04/20 04:14:15;;;;;;;3.95;2.50;;;3.70;99.90;;;;;;5466793;26;20306;-73
2024/04/20 04:16:46;;;;;;;2.95;2.65;;;3.70;99.90;;;;;;5447133;26;20602;-74
2024/04/20 04:19:15;;;;;;;5.03;2.80;;;3.70;99.90;;;;;;5474407;26;20241;-73
2024/04/20 04:21:44;;;;;;;4.60;2.60;;;3.70;99.90;;;;;;5468366;26;20278;-73
2024/04/20 04:24:12;;;;;;;4.15;2.42;;;3.80;99.90;;;;;;5447923;26;20258;-73
2024/04/20 04:26:41;;;;;;;3.75;2.55;;;3.70;99.90;;;;;;5445315;26;20246;-73
2024/04/20 04:29:10;;;;;;;5.78;2.90;;;3.70;99.90;;;;;;5462895;26;20250;-73
2024/04/20 04:31:39;;;;;;;11.10;3.42;;;3.70;99.90;;;;;;5433690;26;20276;-73
2024/04/20 04:34:10;;;;;;;3.85;2.58;;;3.70;99.90;;;;;;5448004;26;20245;-74
2024/04/20 04:36:39;;;;;;;3.17;2.70;;;3.70;99.90;;;;;;5484049;26;20271;-73
2024/04/20 04:39:09;;;;;;;5.25;2.80;;;3.70;99.90;;;;;;5440461;26;20261;-73
2024/04/20 04:41:38;;;;;;;5.82;2.70;;;3.60;99.90;;;;;;5454400;26;20245;-72
2024/04/20 04:44:07;;;;;;;2.47;2.20;;;3.60;99.90;;;;;;5448417;26;20288;-73
2024/04/20 04:46:36;;;;;;;4.45;2.17;;;3.70;99.90;;;;;;5446584;26;20253;-73
2024/04/20 04:49:05;;;;;;;8.68;2.70;;;3.70;99.90;;;;;;5447761;26;21663;-75
2024/04/20 04:51:36;;;;;;;3.17;2.88;;;3.70;99.90;;;;;;5467884;26;20279;-73
2024/04/20 04:54:05;;;;;;;2.85;2.42;;;3.70;99.90;;;;;;5478319;26;20241;-76
2024/04/20 04:56:34;;;;;;;10.82;3.33;;;3.70;99.90;;;;;;5454698;26;20741;-76
2024/04/20 04:59:06;;;;;;;7.03;2.80;;;3.70;99.90;;;;;;5447542;26;20248;-76
2024/04/20 05:01:37;;;;;;;3.33;3.03;;;3.80;99.90;;;;;;5447880;26;20252;-77
2024/04/20 05:04:06;;;;;;;3.55;2.72;;;3.80;99.90;;;;;;5471918;26;20271;-76
2024/04/20 05:06:40;;;;;;;6.30;2.92;;;3.80;99.90;;;;;;5482864;26;20239;-76
2024/04/20 05:09:09;;;;;;;7.45;4.03;;;3.90;99.90;;;;;;5478188;26;20243;-76
2024/04/20 05:11:38;;;;;;;2.88;2.55;;;3.90;99.90;;;;;;5478362;26;20388;-76
2024/04/20 05:14:06;;;;;;;3.50;2.50;;;3.90;99.90;;;;;;5464658;26;20257;-76
2024/04/20 05:16:35;;;;;;;4.80;2.63;;;3.80;99.90;;;;;;5461008;26;20269;-75
2024/04/20 05:19:05;;;;;;;3.33;2.40;;;3.80;99.90;;;;;;5463201;26;20263;-76
2024/04/20 05:21:33;;;;;;;2.97;2.63;;;3.80;99.90;;;;;;5420314;26;20255;-76
2024/04/20 05:24:05;;;;;;;6.32;3.42;;;3.80;99.90;;;;;;5454330;26;20595;-76
2024/04/20 05:26:34;;;;;;;6.13;3.33;;;3.90;99.90;;;;;;5478848;26;20615;-76
2024/04/20 05:29:03;;;;;;;4.63;3.15;;;3.90;99.90;;;;;;5479776;26;20249;-76
2024/04/20 05:31:32;;;;;;;5.10;2.60;;;3.90;99.90;;;;;;5479755;26;20260;-76
2024/04/20 05:34:00;;;;;;;8.18;3.67;;;4.00;99.90;;;;;;5483590;26;20248;-76
2024/04/20 05:36:29;;;;;;;3.40;2.95;;;3.90;99.90;;;;;;5478910;26;20295;-76
2024/04/20 05:38:58;;;;;;;3.47;2.47;;;3.90;99.90;;;;;;5479811;26;20290;-76
2024/04/20 05:41:29;;;;;;;2.92;2.30;;;3.90;99.90;;;;;;5450828;26;20269;-76
2024/04/20 05:43:58;;;;;;;8.88;2.80;;;3.90;99.90;;;;;;5447605;26;20258;-76
2024/04/20 05:46:27;;;;;;;3.28;2.47;;;3.80;99.90;;;;;;5446439;26;20275;-76
2024/04/20 05:48:56;;;;;;;3.42;2.42;;;3.90;99.90;;;;;;5456024;26;20282;-76
2024/04/20 05:51:25;;;;;;;2.72;2.53;;;3.90;99.90;;;;;;5480431;26;20742;-76
2024/04/20 05:53:54;;;;;;;2.47;2.28;;;3.90;99.90;;;;;;5450511;26;20246;-76
2024/04/20 05:56:23;;;;;;;2.78;2.55;;;4.00;99.90;;;;;;5444884;26;20868;-75
2024/04/20 05:58:54;;;;;;;3.33;2.40;;;4.00;99.90;;;;;;5449415;26;20246;-79
2024/04/20 06:01:23;;;;;;;3.28;2.97;;;4.00;99.90;;;;;;5463222;26;20238;-76
2024/04/20 06:03:52;;;;;;;4.68;3.25;;;4.00;99.90;;;;;;5454758;26;20605;-74
2024/04/20 06:06:20;;;;;;;2.30;1.77;;;4.00;99.90;;;;;;5452956;26;20245;-74
2024/04/20 06:08:49;;;;;;;3.00;2.35;;;3.90;99.90;;;;;;5449575;26;20261;-75
2024/04/20 06:11:18;;;;;;;3.15;2.47;;;4.00;99.90;;;;;;5452220;26;20321;-75
2024/04/20 06:13:47;;;;;;;5.75;2.80;;;3.90;99.90;;;;;;5446898;26;20271;-75
2024/04/20 06:16:18;;;;;;;4.60;4.22;;;4.00;99.90;;;;;;5440429;26;20299;-75
2024/04/20 06:18:47;;;;;;;2.70;2.50;;;4.10;99.90;;;;;;5445083;26;20268;-76
2024/04/20 06:21:17;;;;;;;3.50;2.30;;;4.20;99.90;;;;;;5444464;26;20273;-76
2024/04/20 06:23:45;;;;;;;4.60;2.10;;;4.20;99.90;;;;;;5442332;26;20245;-75
2024/04/20 06:26:14;;;;;;;4.25;2.95;;;4.20;99.90;;;;;;5448831;26;20270;-75
2024/04/20 06:28:43;;;;;;;2.80;2.60;;;4.20;99.90;;;;;;5448271;26;20728;-75
2024/04/20 06:31:12;;;;;;;3.30;2.55;;;4.20;99.90;;;;;;5450935;26;20266;-75
2024/04/20 06:33:43;;;;;;;2.97;2.40;;;4.30;99.90;;;;;;5408085;26;20271;-74
2024/04/20 06:36:12;;;;;;;4.00;2.55;;;4.30;99.90;;;;;;5471972;26;20253;-74
2024/04/20 06:38:41;;;;;;;2.78;2.55;;;4.30;99.90;;;;;;5434952;26;20360;-75
2024/04/20 06:41:10;;;;;;;4.93;2.80;;;4.40;99.90;;;;;;5444191;26;20268;-75
2024/04/20 06:43:39;;;;;;;3.00;2.42;;;4.50;99.90;;;;;;5451971;26;20576;-75
2024/04/20 06:46:08;;;;;;;4.35;2.85;;;4.40;99.90;;;;;;5463860;26;20720;-75
2024/04/20 06:48:39;;;;;;;2.50;2.25;;;4.50;99.90;;;;;;5447963;26;20263;-76
2024/04/20 06:51:11;;;;;;;2.83;2.10;;;4.50;99.90;;;;;;5451006;26;20564;-77
2024/04/20 06:53:40;;;;;;;4.18;2.45;;;4.50;99.90;;;;;;5448993;26;20249;-75
2024/04/20 06:56:11;;;;;;;3.58;2.45;;;4.60;99.90;;;;;;5449366;26;20259;-76
2024/04/20 06:58:42;;;;;;;2.65;2.30;;;4.70;99.90;;;;;;5404027;26;20270;-76
2024/04/20 07:01:10;;;;;;;6.30;2.60;;;4.60;99.90;;;;;;5447348;26;20273;-76
2024/04/20 07:03:40;;;;;;;4.82;2.50;;;4.70;99.90;;;;;;5446763;26;20261;-76
2024/04/20 07:06:12;;;;;;;5.47;3.40;;;4.60;99.90;;;;;;5447992;26;20272;-76
2024/04/20 07:08:41;;;;;;;4.80;3.15;;;4.70;99.90;;;;;;5435939;26;20302;-76
2024/04/20 07:11:10;;;;;;;3.50;2.60;;;4.80;99.90;;;;;;5450068;26;20257;-76
2024/04/20 07:13:42;;;;;;;3.10;2.80;;;4.80;99.90;;;;;;5449025;26;20254;-76
2024/04/20 07:16:11;;;;;;;2.85;2.40;;;5.00;99.90;;;;;;5448448;26;20288;-76
2024/04/20 07:18:39;;;;;;;4.75;3.25;;;5.00;99.90;;;;;;5448874;26;20636;-76
2024/04/20 07:21:16;;;;;;;4.50;3.00;;;4.90;99.90;;;;;;5448805;26;20274;-76
2024/04/20 07:23:50;;;;;;;6.75;3.50;;;5.30;99.90;;;;;;5436890;26;20590;-76
2024/04/20 07:26:25;;;;;;;4.07;3.00;;;5.30;99.90;;;;;;5448593;26;20259;-77
2024/04/20 07:28:55;;;;;;;5.35;3.20;;;5.30;99.90;;;;;;5455847;26;20249;-77
2024/04/20 07:31:24;;;;;;;5.40;3.08;;;5.30;99.90;;;;;;5473668;26;20270;-77
2024/04/20 07:33:52;;;;;;;3.15;2.45;;;5.60;99.90;;;;;;5465147;26;20254;-77
2024/04/20 07:36:21;;;;;;;7.13;3.42;;;5.70;99.90;;;;;;5470633;26;20243;-77
2024/04/20 07:38:50;;;;;;;4.18;3.67;;;5.70;99.90;;;;;;5461448;26;20798;-76
2024/04/20 07:41:22;;;;;;;5.35;3.15;;;5.70;99.90;;;;;;5460022;26;20240;-76
2024/04/20 07:43:51;;;;;;;3.40;3.10;;;5.80;99.90;;;;;;5464730;26;20285;-75
2024/04/20 07:46:20;;;;;;;3.40;3.10;;;5.90;99.90;;;;;;5461387;26;20623;-77
2024/04/20 07:48:49;;;;;;;3.28;3.08;;;6.00;99.90;;;;;;5459997;26;20238;-77
2024/04/20 07:54:31;;;;;;;4.60;3.42;;;5.90;99.40;;;;;;5414723;26;20228;-76
2024/04/20 07:57:00;;;;;;;3.90;3.10;;;5.90;99.40;;;;;;5455022;26;20263;-77
2024/04/20 07:59:31;;;;;;;4.38;3.50;;;5.90;98.20;;;;;;5465830;26;20260;-77
2024/04/20 08:02:03;;;;;;;4.00;3.70;;;5.90;98.30;;;;;;5466193;26;20290;-76
2024/04/20 08:04:32;;;;;;;4.65;3.88;;;5.80;98.40;;;;;;5474898;26;20254;-76
2024/04/20 08:07:05;;;;;;;7.60;3.53;;;5.80;99.10;;;;;;5457636;26;20351;-76
2024/04/20 08:09:34;;;;;;;3.70;3.30;;;5.80;99.30;;;;;;5461284;26;20321;-76
2024/04/20 08:12:04;;;;;;;4.85;3.08;;;5.60;98.50;;;;;;5479902;26;20750;-77
2024/04/20 08:14:33;;;;;;;3.40;3.10;;;5.70;99.00;;;;;;5479198;26;20578;-77
2024/04/20 08:17:02;;;;;;;4.32;3.03;;;5.60;98.80;;;;;;5461957;26;20260;-76
2024/04/20 08:19:31;;;;;;;3.03;2.75;;;5.60;98.70;;;;;;5455200;26;20243;-76
2024/04/20 08:22:03;;;;;;;3.40;3.05;;;5.50;98.10;;;;;;5451726;26;20571;-76
2024/04/20 08:24:32;;;;;;;4.53;2.15;;;5.60;98.30;;;;;;5458845;26;20290;-76
2024/04/20 08:27:01;;;;;;;3.03;2.72;;;5.70;98.40;;;;;;5457631;26;20573;-76
2024/04/20 08:29:31;;;;;;;3.97;3.28;;;5.70;97.50;;;;;;5448440;26;20263;-76
2024/04/20 08:32:00;;;;;;;2.70;2.50;;;5.80;97.70;;;;;;5450255;26;20255;-76
2024/04/20 08:34:29;;;;;;;2.72;2.35;;;5.90;97.90;;;;;;5445777;26;20270;-76
2024/04/20 08:36:58;;;;;;;3.53;3.20;;;5.90;97.40;;;;;;5454760;26;20247;-76
2024/04/20 08:39:30;;;;;;;3.00;2.45;;;5.90;96.70;;;;;;5464392;26;20259;-76
2024/04/20 08:42:05;;;;;;;3.40;2.70;;;6.00;96.60;;;;;;5452852;26;20244;-76
2024/04/20 08:44:36;;;;;;;2.50;2.30;;;6.10;96.70;;;;;;5441552;26;20258;-76
2024/04/20 08:47:11;;;;;;;3.30;2.95;;;6.10;95.30;;;;;;5461729;26;20722;-76
2024/04/20 08:49:43;;;;;;;4.35;2.38;;;6.10;95.60;;;;;;5462590;26;20251;-75
2024/04/20 08:52:13;;;;;;;3.65;2.90;;;5.90;95.00;;;;;;5469263;26;20633;-76
2024/04/20 08:54:46;;;;;;;3.55;3.10;;;5.90;96.30;;;;;;5467881;26;20266;-76
2024/04/20 08:57:18;;;;;;;2.90;2.70;;;5.90;95.80;;;;;;5476091;26;20651;-75
2024/04/20 08:59:47;;;;;;;5.07;2.38;;;5.90;95.40;;;;;;5466496;26;20250;-76
2024/04/20 09:02:21;;;;;;;6.22;2.50;;;6.00;95.80;;;;;;5473994;26;20255;-76
2024/04/20 09:04:50;;;;;;;2.95;2.42;;;6.10;96.40;;;;;;5474975;26;20239;-75
2024/04/20 09:07:19;;;;;;;3.10;2.80;;;6.00;95.70;;;;;;5475377;26;20631;-75
2024/04/20 09:09:50;;;;;;;2.60;2.40;;;6.00;94.40;;;;;;5471478;26;20289;-76
2024/04/20 09:12:19;;;;;;;4.30;3.72;;;6.00;95.40;;;;;;5474219;26;20353;-76
2024/04/20 09:14:48;;;;;;;3.20;2.90;;;6.20;95.50;;;;;;5460942;26;20270;-76
2024/04/20 09:17:17;;;;;;;3.70;3.40;;;6.50;95.80;;;;;;5475859;26;20270;-75
2024/04/20 09:19:46;;;;;;;3.45;3.13;;;6.90;95.30;;;;;;5476717;26;20713;-76
2024/04/20 09:22:15;;;;;;;4.22;3.83;;;7.20;94.80;;;;;;5469580;26;20775;-75
2024/04/20 09:24:45;;;;;;;4.05;3.35;;;7.20;94.50;;;;;;5475947;26;20235;-76
2024/04/20 09:27:16;;;;;;;4.07;2.92;;;7.50;94.00;;;;;;5477076;26;20239;-76
2024/04/20 09:29:47;;;;;;;2.60;2.40;;;7.90;94.10;;;;;;5455640;26;20430;-76
2024/04/20 09:32:17;;;;;;;2.80;2.60;;;7.90;92.10;;;;;;5447476;26;20255;-76
2024/04/20 09:34:46;;;;;;;3.33;3.03;;;7.90;92.90;;;;;;5447331;26;21090;-76
2024/04/20 09:37:15;;;;;;;2.83;2.63;;;7.40;92.10;;;;;;5447731;26;20274;-76
2024/04/20 09:39:45;;;;;;;3.22;2.90;;;7.20;92.50;;;;;;5452157;26;20572;-76
2024/04/20 09:42:17;;;;;;;3.30;2.80;;;7.10;93.10;;;;;;5453984;26;20573;-76
2024/04/20 09:44:47;;;;;;;3.83;3.53;;;7.30;93.30;;;;;;5451681;26;20244;-76
2024/04/20 09:47:17;;;;;;;2.65;2.45;;;7.50;92.80;;;;;;5454105;26;20256;-76
2024/04/20 09:49:53;;;;;;;3.57;2.50;;;7.60;91.90;;;;;;5461286;26;20242;-76
2024/04/20 09:52:25;;;;;;;2.50;2.30;;;7.40;91.10;;;;;;5437445;26;20980;-75
2024/04/20 09:55:05;;;;;;;2.23;2.03;;;7.40;91.80;;;;;;5450468;26;20614;-76
2024/04/20 09:57:38;;;;;;;3.90;2.30;;;7.60;93.20;;;;;;5455564;26;20552;-76
2024/04/20 10:00:08;;;;;;;3.47;2.90;;;7.90;93.10;;;;;;5458958;26;20596;-76
2024/04/20 10:02:38;;;;;;;3.60;2.80;;;8.00;93.10;;;;;;5467141;26;21013;-75
2024/04/20 10:05:08;;;;;;;2.93;2.43;;;7.80;92.60;;;;;;5471327;26;21116;-76
2024/04/20 10:07:38;;;;;;;2.87;2.67;;;7.80;92.50;;;;;;5455989;26;20692;-76
2024/04/20 10:10:08;;;;;;;3.20;2.33;;;7.70;91.40;;;;;;5472349;26;20552;-76
2024/04/20 10:12:39;;;;;;;3.10;2.80;;;7.70;90.90;;;;;;5466438;26;20554;-75
2024/04/20 10:15:09;;;;;;;2.67;2.47;;;7.30;89.60;;;;;;5467900;26;21113;-76
2024/04/20 10:17:38;;;;;;;2.45;2.25;;;6.90;91.20;;;;;;5458565;26;20554;-76
2024/04/20 10:20:11;;;;;;;3.75;2.50;;;6.90;92.40;;;;;;5472050;26;20238;-76
2024/04/20 10:22:41;;;;;;;2.80;2.50;;;6.70;92.50;;;;;;5466654;26;20266;-76
2024/04/20 10:25:14;;;;;;;3.25;2.47;;;6.60;93.90;;;;;;5467365;26;20322;-76
2024/04/20 10:27:52;;;;;;;3.38;3.08;;;6.40;92.90;;;;;;5469240;26;20425;-76
2024/04/20 10:30:23;;;;;;;3.53;2.65;;;6.40;92.50;;;;;;5460950;26;20234;-76
2024/04/20 10:32:54;;;;;;;3.55;2.60;;;6.40;93.00;;;;;;5466300;26;20268;-76
2024/04/20 10:35:25;;;;;;;3.13;2.80;;;6.50;93.30;;;;;;5454308;26;20244;-77
2024/04/20 10:38:01;;;;;;;3.17;2.70;;;6.50;92.70;;;;;;5452651;26;20294;-77
2024/04/20 10:40:32;;;;;;;5.13;2.90;;;6.70;93.50;;;;;;5448634;26;20335;-77
2024/04/20 10:43:13;;;;;;;3.33;3.00;;;6.80;92.80;;;;;;5447278;26;20256;-77
2024/04/20 10:45:43;;;;;;;4.07;2.55;;;6.70;91.80;;;;;;5452763;26;20243;-74
2024/04/20 10:48:14;;;;;;;2.63;2.42;;;6.70;92.60;;;;;;5431209;26;20237;-75
2024/04/20 10:50:43;;;;;;;3.95;2.45;;;6.70;92.70;;;;;;5449440;26;20659;-76
2024/04/20 10:53:14;;;;;;;3.17;2.83;;;6.70;92.50;;;;;;5450389;26;20256;-75
2024/04/20 10:55:42;;;;;;;2.78;2.47;;;6.60;93.30;;;;;;5447978;26;20298;-74
2024/04/20 10:58:14;;;;;;;3.80;3.38;;;6.70;93.70;;;;;;5449071;26;20360;-75
2024/04/20 11:00:43;;;;;;;4.03;2.70;;;6.60;93.90;;;;;;5445536;26;20248;-74
2024/04/20 11:03:15;;;;;;;5.32;3.35;;;6.50;93.90;;;;;;5459525;26;20243;-74
2024/04/20 11:05:54;;;;;;;3.22;2.92;;;6.50;93.30;;;;;;5445057;26;20426;-74
2024/04/20 11:08:24;;;;;;;3.25;2.95;;;6.50;93.10;;;;;;5456362;26;20354;-74
2024/04/20 11:10:58;;;;;;;3.05;2.67;;;6.60;92.90;;;;;;5457070;26;20252;-73
2024/04/20 11:13:29;;;;;;;2.88;2.63;;;6.80;92.80;;;;;;5452193;26;20337;-77
2024/04/20 11:15:59;;;;;;;3.22;2.55;;;6.80;92.40;;;;;;5461905;26;20842;-77
2024/04/20 11:18:28;;;;;;;3.58;2.80;;;6.90;92.20;;;;;;5441096;26;20282;-76
2024/04/20 11:20:57;;;;;;;3.60;2.00;;;7.00;92.50;;;;;;5449413;26;20247;-75
2024/04/20 11:23:28;;;;;;;2.40;2.20;;;7.00;91.70;;;;;;5460298;26;20332;-74
2024/04/20 11:25:58;;;;;;;2.40;2.20;;;7.10;91.70;;;;;;5456485;26;20592;-77
2024/04/20 11:28:30;;;;;;;2.78;2.25;;;7.00;89.40;;;;;;5449647;26;20300;-74
2024/04/20 11:31:01;;;;;;;2.58;2.38;;;7.00;89.00;;;;;;5459571;26;20240;-75
2024/04/20 11:33:30;;;;;;;2.45;2.00;;;6.90;89.10;;;;;;5447087;26;20270;-75
2024/04/20 11:36:04;;;;;;;4.05;2.80;;;6.90;89.60;;;;;;5451360;26;20252;-75
2024/04/20 11:38:34;;;;;;;6.93;2.38;;;7.10;89.80;;;;;;5449189;26;20646;-75
2024/04/20 11:41:02;;;;;;;2.37;2.17;;;7.40;90.10;;;;;;5450225;26;20332;-75
2024/04/20 11:43:35;;;;;;;4.60;2.90;;;7.60;90.50;;;;;;5446341;26;20550;-75
2024/04/20 11:46:05;;;;;;;4.10;3.20;;;7.80;90.40;;;;;;5468182;26;20557;-75
2024/04/20 11:48:36;;;;;;;4.80;2.70;;;7.70;88.40;;;;;;5465553;26;21147;-75
2024/04/20 11:51:15;;;;;;;3.23;2.30;;;7.80;87.50;;;;;;5471132;26;21164;-75
2024/04/20 11:56:29;;;;;;;2.50;2.30;;;7.90;85.60;;;;;;5452620;26;20560;-75
2024/04/20 11:59:03;;;;;;;3.00;2.67;;;7.80;87.20;;;;;;5448347;26;20566;-75
2024/04/20 12:01:32;;;;;;;3.37;2.47;;;7.90;88.60;;;;;;5448611;26;20597;-75
2024/04/20 12:04:01;;;;;;;2.80;2.60;;;7.80;86.30;;;;;;5448154;26;20546;-75
2024/04/20 12:06:30;;;;;;;2.90;2.60;;;7.70;86.40;;;;;;5450430;26;20956;-75
2024/04/20 12:08:59;;;;;;;2.67;2.43;;;7.90;89.00;;;;;;5478559;26;20553;-75
2024/04/20 12:11:28;;;;;;;2.80;2.60;;;8.10;89.10;;;;;;5484629;26;20666;-75
2024/04/20 12:14:00;;;;;;;3.70;2.40;;;8.30;88.00;;;;;;5449493;26;20783;-75
2024/04/20 12:16:29;;;;;;;4.73;2.53;;;8.50;87.40;;;;;;5480429;26;20608;-75
2024/04/20 12:18:58;;;;;;;3.73;2.23;;;8.50;86.30;;;;;;5459223;26;20606;-75
2024/04/20 12:21:27;;;;;;;5.53;2.40;;;8.60;84.60;;;;;;5445920;26;20601;-75
2024/04/20 12:23:56;;;;;;;6.03;2.50;;;8.50;85.00;;;;;;5439487;26;20598;-75
2024/04/20 12:26:25;;;;;;;2.50;2.30;;;8.70;85.90;;;;;;5447874;26;20565;-75
2024/04/20 12:28:53;;;;;;;2.33;2.13;;;8.50;81.60;;;;;;5461717;26;21249;-75
2024/04/20 12:31:25;;;;;;;6.10;1.90;;;8.40;82.00;;;;;;5465182;26;20606;-75
2024/04/20 12:33:55;;;;;;;2.67;2.00;;;9.10;84.30;;;;;;5468128;26;20606;-75
2024/04/20 12:36:24;;;;;;;3.07;2.47;;;9.40;79.40;;;;;;5463412;26;20904;-75
2024/04/20 12:38:53;;;;;;;2.77;2.47;;;9.70;82.10;;;;;;5456059;26;20554;-75
2024/04/20 12:41:26;;;;;;;3.10;2.47;;;10.00;79.80;;;;;;5463603;26;21179;-75
2024/04/20 12:43:58;;;;;;;2.83;2.33;;;10.30;80.00;;;;;;5465154;26;20606;-75
2024/04/20 12:46:31;;;;;;;2.50;2.30;;;11.20;79.40;;;;;;5459927;26;20609;-76
2024/04/20 12:49:02;;;;;;;3.10;2.10;;;11.30;74.00;;;;;;5458216;26;20597;-75
2024/04/20 12:51:33;;;;;;;4.90;2.70;;;11.90;77.20;;;;;;5462613;26;20624;-75
2024/04/20 12:54:02;;;;;;;3.33;2.37;;;11.80;72.40;;;;;;5464510;26;21134;-75
2024/04/20 12:56:31;;;;;;;2.20;1.73;;;11.70;68.80;;;;;;5457121;26;20669;-75
2024/04/20 12:59:00;;;;;;;1.87;1.67;;;12.00;71.40;;;;;;5451242;26;20675;-75
2024/04/20 13:01:32;;;;;;;2.70;2.00;;;12.30;69.90;;;;;;5456772;26;20610;-76
2024/04/20 13:04:03;;;;;;;1.67;1.57;;;12.50;71.40;;;;;;5458904;26;20909;-76
2024/04/20 13:06:32;;;;;;;1.73;1.63;;;13.00;64.50;;;;;;5465674;26;20601;-75
2024/04/20 13:09:00;;;;;;;2.20;1.80;;;12.70;63.20;;;;;;5461794;26;20590;-76
2024/04/20 13:11:32;;;;;;;1.93;1.53;;;13.20;62.70;;;;;;5445331;26;20561;-75
2024/04/20 13:14:03;;;;;;;1.47;1.33;;;13.40;59.40;;;;;;5448463;26;20557;-77
2024/04/20 13:16:36;;;;;;;3.17;1.50;;;13.10;59.20;;;;;;5457287;26;20580;-69